Time;durP1;ratioP1;P1;durP2;ratioP2;P2;SDS_P1;SDS_P2;PMS_P1;PMS_P2;Temp;Humidity;BMP_temperature;BMP_pressure;BME280_temperature;BME280_humidity;BME280_pressure;Samples;Min_cycle;Max_cycle;Signal;HPM_P1;HPM_P2
2022/01/02 00:02:10;;;;;;;8.27;4.00;;;;;;;8.90;81.78;101181.56;5012700;28;20037;-79
2022/01/02 00:04:39;;;;;;;10.40;4.32;;;;;;;8.88;81.99;101175.41;5014286;28;20044;-80
2022/01/02 00:07:07;;;;;;;8.27;4.25;;;;;;;8.86;81.83;101166.63;5013779;28;20105;-79
2022/01/02 00:09:33;;;;;;;7.97;3.72;;;;;;;8.80;81.99;101164.78;5013777;28;20037;-79
2022/01/02 00:12:10;;;;;;;7.03;4.03;;;;;;;8.79;81.75;101163.03;5013717;28;20030;-79
2022/01/02 00:14:41;;;;;;;6.80;3.72;;;;;;;8.77;82.44;101165.63;5012336;28;20045;-80
2022/01/02 00:17:07;;;;;;;7.20;3.38;;;;;;;8.78;82.22;101156.88;5009997;28;20083;-79
2022/01/02 00:19:34;;;;;;;7.90;3.97;;;;;;;8.79;82.07;101152.50;5013778;28;20037;-79
2022/01/02 00:22:03;;;;;;;9.05;3.85;;;;;;;8.76;82.54;101157.72;5012472;28;20037;-79
2022/01/02 00:24:31;;;;;;;10.40;4.07;;;;;;;8.77;81.87;101168.25;5013668;28;20484;-80
2022/01/02 00:26:58;;;;;;;9.15;3.92;;;;;;;8.78;81.93;101162.16;5013923;28;20061;-80
2022/01/02 00:29:24;;;;;;;9.38;4.00;;;;;;;8.78;81.85;101164.78;5003850;28;20022;-79
2022/01/02 00:31:51;;;;;;;10.10;4.20;;;;;;;8.78;81.43;101162.16;5013858;28;20401;-79
2022/01/02 00:34:18;;;;;;;6.97;3.50;;;;;;;8.75;82.13;101161.22;5011989;28;20124;-80
2022/01/02 00:36:43;;;;;;;8.18;3.97;;;;;;;8.69;82.48;101162.03;5012184;28;20115;-80
2022/01/02 00:39:09;;;;;;;7.43;4.05;;;;;;;8.72;82.10;101170.00;5019964;28;20046;-79
2022/01/02 00:41:42;;;;;;;7.00;4.03;;;;;;;8.73;81.88;101165.59;5011707;28;20042;-79
2022/01/02 00:44:20;;;;;;;9.88;3.90;;;;;;;8.69;81.99;101156.78;5013532;28;20088;-79
2022/01/02 00:47:06;;;;;;;10.63;3.60;;;;;;;8.67;81.80;101148.00;5009226;28;20037;-79
2022/01/02 00:49:37;;;;;;;12.02;3.75;;;;;;;8.66;82.50;101138.31;5026312;28;20031;-80
2022/01/02 00:52:06;;;;;;;8.07;3.85;;;;;;;8.59;82.58;101133.84;5013285;28;20119;-79
2022/01/02 00:54:32;;;;;;;6.90;3.15;;;;;;;8.63;82.66;101127.75;5012909;28;20447;-79
2022/01/02 00:57:04;;;;;;;8.93;3.85;;;;;;;8.61;82.24;101136.50;5012043;28;20034;-80
2022/01/02 00:59:42;;;;;;;6.57;3.30;;;;;;;8.64;81.84;101124.25;5011920;28;20030;-79
2022/01/02 01:02:12;;;;;;;10.02;3.78;;;;;;;8.63;82.28;101122.50;5009519;28;20030;-79
2022/01/02 01:04:43;;;;;;;5.85;3.30;;;;;;;8.64;82.50;101110.22;5011703;28;20088;-79
2022/01/02 01:07:08;;;;;;;7.00;3.65;;;;;;;8.64;82.57;101105.84;5013036;28;20112;-79
2022/01/02 01:09:33;;;;;;;9.60;4.07;;;;;;;8.63;82.22;101111.09;5011601;28;20117;-79
2022/01/02 01:12:01;;;;;;;7.55;3.90;;;;;;;8.62;82.31;101107.59;5012200;28;20099;-79
2022/01/02 01:14:28;;;;;;;8.68;4.18;;;;;;;8.60;82.60;101105.81;5004588;28;20041;-80
2022/01/02 01:16:53;;;;;;;6.60;3.38;;;;;;;8.59;82.29;101102.28;5021092;28;20041;-79
2022/01/02 01:19:22;;;;;;;7.38;3.15;;;;;;;8.57;81.89;101093.50;5028092;28;20094;-79
2022/01/02 01:21:47;;;;;;;7.80;3.20;;;;;;;8.55;82.25;101092.59;5011799;28;20068;-79
2022/01/02 01:24:16;;;;;;;9.23;3.15;;;;;;;8.52;82.62;101089.94;5011521;28;20037;-80
2022/01/02 01:26:43;;;;;;;7.40;3.45;;;;;;;8.49;82.04;101082.00;5011092;28;20401;-79
2022/01/02 01:29:08;;;;;;;6.72;3.67;;;;;;;8.49;82.58;101079.38;5012901;28;20045;-79
2022/01/02 01:31:34;;;;;;;7.20;3.83;;;;;;;8.48;82.59;101074.97;5011617;28;20029;-79
2022/01/02 01:34:00;;;;;;;8.50;3.13;;;;;;;8.41;82.79;101065.22;5011597;28;20045;-79
2022/01/02 01:36:26;;;;;;;7.03;3.20;;;;;;;8.36;82.79;101059.91;5012751;28;20045;-79
2022/01/02 01:38:51;;;;;;;5.78;3.47;;;;;;;8.31;82.66;101058.97;5011303;28;20105;-79
2022/01/02 01:41:36;;;;;;;7.35;3.60;;;;;;;8.27;82.40;101060.66;5011214;28;20030;-79
2022/01/02 01:46:40;;;;;;;8.85;3.58;;;;;;;8.16;82.66;101038.63;5007975;28;20520;-80
2022/01/02 01:49:16;;;;;;;7.45;3.67;;;;;;;8.13;83.05;101044.75;5012210;28;20026;-80
2022/01/02 01:51:43;;;;;;;10.18;4.45;;;;;;;8.12;82.52;101052.59;5015457;28;20037;-79
2022/01/02 01:54:10;;;;;;;7.40;3.60;;;;;;;8.12;83.19;101052.59;5016546;28;20100;-79
2022/01/02 01:56:37;;;;;;;9.68;4.47;;;;;;;8.15;82.86;101051.75;5014736;28;20128;-79
2022/01/02 01:59:02;;;;;;;6.30;3.38;;;;;;;8.15;83.03;101049.13;5023434;28;20127;-79
2022/01/02 02:01:28;;;;;;;9.98;3.90;;;;;;;8.18;83.12;101050.06;5014972;28;20084;-79
2022/01/02 02:03:56;;;;;;;7.32;3.63;;;;;;;8.21;83.02;101036.94;5014832;28;20083;-79
2022/01/02 02:06:22;;;;;;;8.18;3.45;;;;;;;8.21;83.29;101036.06;5014757;28;20053;-79
2022/01/02 02:08:52;;;;;;;7.32;3.30;;;;;;;8.26;83.08;101026.47;5014564;28;20537;-79
2022/01/02 02:11:19;;;;;;;6.55;3.50;;;;;;;8.28;82.41;101006.34;5014218;28;20029;-79
2022/01/02 02:13:45;;;;;;;9.25;3.53;;;;;;;8.29;82.51;100998.47;5014665;28;20038;-79
2022/01/02 02:16:10;;;;;;;6.47;3.97;;;;;;;8.29;82.77;100987.06;5014443;28;20025;-79
2022/01/02 02:18:36;;;;;;;7.93;4.03;;;;;;;8.31;82.74;100974.81;5022998;28;20044;-79
2022/01/02 02:21:01;;;;;;;7.28;3.67;;;;;;;8.33;83.25;100973.97;5014764;28;20026;-79
2022/01/02 02:23:31;;;;;;;7.25;3.88;;;;;;;8.42;82.56;100967.06;5014565;28;20520;-79
2022/01/02 02:25:56;;;;;;;8.43;3.90;;;;;;;8.46;82.75;100972.38;5015598;28;20092;-79
2022/01/02 02:28:26;;;;;;;10.77;4.13;;;;;;;8.55;82.43;100963.69;5014538;28;20038;-79
2022/01/02 02:30:52;;;;;;;7.15;3.60;;;;;;;8.62;82.00;100965.50;5014219;28;20030;-79
2022/01/02 02:33:19;;;;;;;8.15;3.53;;;;;;;8.68;82.23;100962.03;5022956;28;20033;-79
2022/01/02 02:35:46;;;;;;;9.30;4.18;;;;;;;8.66;81.59;100964.66;5014214;28;20026;-79
2022/01/02 02:38:16;;;;;;;9.10;3.85;;;;;;;8.72;81.89;100958.56;5022710;28;20663;-79
2022/01/02 02:40:42;;;;;;;7.43;3.78;;;;;;;8.72;82.00;100951.56;5013852;28;20492;-79
2022/01/02 02:43:30;;;;;;;6.70;3.70;;;;;;;8.73;80.94;100947.19;5022350;28;20061;-79
2022/01/02 02:49:00;;;;;;;8.45;4.15;;;;;;;8.59;81.75;100941.78;5022378;28;20033;-79
2022/01/02 02:51:41;;;;;;;9.15;4.00;;;;;;;8.54;81.33;100951.38;5020378;28;20129;-79
2022/01/02 02:54:08;;;;;;;8.77;4.25;;;;;;;8.44;81.93;100979.38;5022397;28;20034;-79
2022/01/02 02:59:09;;;;;;;6.85;3.45;;;;;;;8.44;81.57;100989.00;5022435;28;20390;-79
2022/01/02 03:01:34;;;;;;;9.50;4.40;;;;;;;8.41;81.42;100974.09;5013286;28;20036;-79
2022/01/02 03:04:00;;;;;;;7.53;3.95;;;;;;;8.43;81.37;100948.66;5022262;28;20038;-79
2022/01/02 03:06:26;;;;;;;7.95;3.90;;;;;;;8.39;81.71;100933.72;5014611;28;20542;-79
2022/01/02 03:08:52;;;;;;;7.60;3.50;;;;;;;8.37;81.44;100931.91;5021673;28;20030;-79
2022/01/02 03:11:21;;;;;;;6.82;3.85;;;;;;;8.36;81.61;100946.81;5013140;28;20392;-79
2022/01/02 03:13:48;;;;;;;8.15;3.58;;;;;;;8.32;81.62;100935.38;5013542;28;20041;-79
2022/01/02 03:16:14;;;;;;;7.82;3.65;;;;;;;8.28;81.44;100923.06;5014262;28;20121;-80
2022/01/02 03:18:40;;;;;;;8.05;3.78;;;;;;;8.23;81.22;100914.25;5013086;28;20061;-79
2022/01/02 03:21:08;;;;;;;8.05;3.90;;;;;;;8.15;81.65;100905.44;5021950;28;20030;-79
2022/01/02 03:23:34;;;;;;;7.25;3.88;;;;;;;8.03;81.25;100895.66;5013623;28;20105;-79
2022/01/02 03:26:01;;;;;;;6.28;3.58;;;;;;;7.98;81.97;100897.34;5013160;28;20385;-79
2022/01/02 03:28:26;;;;;;;5.50;2.60;;;;;;;7.98;82.13;100875.44;5013065;28;20042;-79
2022/01/02 03:30:52;;;;;;;6.57;3.53;;;;;;;7.92;81.74;100870.16;5013223;28;20037;-79
2022/01/02 03:33:17;;;;;;;7.72;3.80;;;;;;;7.88;81.95;100879.72;5012887;28;20026;-79
2022/01/02 03:35:45;;;;;;;5.95;3.65;;;;;;;7.88;81.59;100863.94;5012649;28;20033;-79
2022/01/02 03:38:11;;;;;;;7.45;4.07;;;;;;;7.82;82.21;100867.41;5013118;28;20163;-79
2022/01/02 03:40:37;;;;;;;7.30;4.20;;;;;;;7.80;82.47;100871.75;5013201;28;20385;-79
2022/01/02 03:43:03;;;;;;;7.65;4.22;;;;;;;7.74;82.23;100883.97;5021440;28;20037;-79
2022/01/02 03:45:29;;;;;;;7.55;3.97;;;;;;;7.70;82.98;100885.66;5012845;28;20064;-79
2022/01/02 03:47:55;;;;;;;9.45;4.65;;;;;;;7.71;82.56;100902.31;5021061;28;20038;-79
2022/01/02 03:50:20;;;;;;;9.55;4.47;;;;;;;7.75;82.35;100878.72;5012678;28;20042;-78
2022/01/02 03:52:46;;;;;;;8.18;4.22;;;;;;;7.78;82.55;100865.63;5012700;28;20510;-79
2022/01/02 03:55:12;;;;;;;9.05;4.70;;;;;;;7.80;82.65;100865.63;5012494;28;20042;-79
2022/01/02 03:57:37;;;;;;;12.18;4.65;;;;;;;7.81;82.18;100857.78;5013902;28;20033;-79
2022/01/02 04:00:12;;;;;;;6.85;3.95;;;;;;;7.83;82.03;100870.91;5012718;28;20026;-79
2022/01/02 04:02:42;;;;;;;7.28;4.32;;;;;;;7.84;82.23;100847.28;5012612;28;20037;-79
2022/01/02 04:05:10;;;;;;;7.05;4.57;;;;;;;7.83;82.68;100844.63;5012569;28;20601;-79
2022/01/02 04:07:36;;;;;;;8.93;4.88;;;;;;;7.81;82.34;100839.38;5012527;28;20041;-78
2022/01/02 04:10:06;;;;;;;8.73;4.30;;;;;;;7.79;81.83;100845.47;5010528;28;20386;-79
2022/01/02 04:12:32;;;;;;;9.68;4.00;;;;;;;7.72;81.93;100852.41;5011559;28;20038;-79
2022/01/02 04:14:58;;;;;;;13.43;4.85;;;;;;;7.62;82.22;100843.56;5020615;28;20037;-79
2022/01/02 04:17:24;;;;;;;6.43;3.85;;;;;;;7.60;82.62;100832.16;5028690;28;20129;-79
2022/01/02 04:19:51;;;;;;;6.75;4.10;;;;;;;7.58;82.24;100830.38;5020501;28;20060;-79
2022/01/02 04:22:17;;;;;;;8.70;3.70;;;;;;;7.57;82.35;100836.47;5013565;28;20099;-79
2022/01/02 04:24:42;;;;;;;7.63;3.90;;;;;;;7.51;83.06;100833.78;5012972;28;20025;-78
2022/01/02 04:27:08;;;;;;;10.40;4.20;;;;;;;7.49;82.55;100825.88;5011948;28;20389;-79
2022/01/02 04:29:33;;;;;;;8.05;3.88;;;;;;;7.49;82.80;100818.00;5012000;28;20080;-78
2022/01/02 04:31:58;;;;;;;9.18;3.80;;;;;;;7.49;82.64;100817.13;5012003;28;20034;-79
2022/01/02 04:34:24;;;;;;;8.32;4.03;;;;;;;7.46;82.96;100816.22;5011933;28;20781;-80
2022/01/02 04:36:49;;;;;;;8.40;3.75;;;;;;;7.44;82.63;100815.34;5011964;28;20041;-79
2022/01/02 04:39:15;;;;;;;9.05;4.60;;;;;;;7.45;83.05;100816.22;5012081;28;20049;-79
2022/01/02 04:41:40;;;;;;;9.57;4.28;;;;;;;7.45;83.14;100811.84;5020171;28;20492;-80
2022/01/02 04:44:06;;;;;;;7.10;3.88;;;;;;;7.49;83.63;100806.63;5010365;28;20033;-79
2022/01/02 04:46:31;;;;;;;6.82;4.05;;;;;;;7.49;83.28;100806.63;5011666;28;20432;-78
2022/01/02 04:48:56;;;;;;;9.25;4.65;;;;;;;7.49;83.23;100806.63;5011888;28;20030;-79
2022/01/02 04:51:23;;;;;;;8.50;4.60;;;;;;;7.50;83.01;100803.16;5017529;28;20498;-79
2022/01/02 04:53:49;;;;;;;6.53;3.67;;;;;;;7.50;83.36;100804.03;5011992;28;20117;-79
2022/01/02 04:56:16;;;;;;;6.70;3.45;;;;;;;7.51;83.01;100789.13;5007907;28;20129;-79
2022/01/02 04:58:43;;;;;;;7.07;4.05;;;;;;;7.51;83.45;100787.38;5019925;28;20579;-79
2022/01/02 05:01:11;;;;;;;6.47;4.30;;;;;;;7.47;83.14;100789.13;5012085;28;20030;-79
2022/01/02 05:03:38;;;;;;;6.57;3.80;;;;;;;7.41;83.02;100775.94;5011994;28;20396;-79
2022/01/02 05:06:04;;;;;;;7.13;4.05;;;;;;;7.36;83.74;100774.09;5011766;28;20049;-79
2022/01/02 05:08:30;;;;;;;7.95;4.07;;;;;;;7.34;83.66;100771.47;5011659;28;20034;-79
2022/01/02 05:10:56;;;;;;;7.22;4.07;;;;;;;7.31;83.70;100763.56;5012753;28;20091;-79
2022/01/02 05:13:22;;;;;;;9.40;4.10;;;;;;;7.32;83.88;100748.69;5011620;28;20045;-79
2022/01/02 05:15:49;;;;;;;6.72;3.78;;;;;;;7.32;84.09;100741.69;5011112;28;20039;-79
2022/01/02 05:18:14;;;;;;;7.38;3.53;;;;;;;7.32;83.89;100741.69;5011606;28;20030;-79
2022/01/02 05:20:44;;;;;;;7.20;3.65;;;;;;;7.33;83.71;100742.56;5011566;28;20152;-79
2022/01/02 05:23:09;;;;;;;8.88;4.30;;;;;;;7.33;84.42;100748.69;5019947;28;20151;-79
2022/01/02 05:25:37;;;;;;;7.70;4.00;;;;;;;7.35;84.34;100741.72;5015184;28;20041;-79
2022/01/02 05:28:02;;;;;;;6.18;3.90;;;;;;;7.35;84.41;100736.47;5015604;28;20034;-79
2022/01/02 05:30:28;;;;;;;8.80;3.75;;;;;;;7.37;84.28;100740.00;5014977;28;20034;-79
2022/01/02 05:32:54;;;;;;;5.50;3.60;;;;;;;7.42;84.54;100743.53;4998958;28;20033;-79
2022/01/02 05:35:20;;;;;;;6.85;3.78;;;;;;;7.45;84.38;100735.69;5015245;28;20059;-79
2022/01/02 05:37:45;;;;;;;7.30;3.60;;;;;;;7.50;84.52;100727.00;5023900;28;20515;-79
2022/01/02 05:40:11;;;;;;;7.10;3.90;;;;;;;7.53;84.94;100725.25;5015046;28;20022;-79
2022/01/02 05:42:37;;;;;;;9.90;4.13;;;;;;;7.58;84.64;100733.19;4998639;28;20092;-79
2022/01/02 05:45:03;;;;;;;8.32;3.97;;;;;;;7.61;84.49;100731.47;5014884;28;20088;-79
2022/01/02 05:47:28;;;;;;;8.05;4.40;;;;;;;7.62;84.26;100724.47;5014725;28;20026;-79
2022/01/02 05:49:53;;;;;;;9.30;4.50;;;;;;;7.65;85.12;100721.84;5015288;28;20037;-79
2022/01/02 05:52:19;;;;;;;6.35;3.95;;;;;;;7.67;84.35;100718.38;5023597;28;20037;-79
2022/01/02 05:54:44;;;;;;;9.20;4.13;;;;;;;7.69;84.51;100726.28;5016095;28;20036;-79
2022/01/02 05:57:10;;;;;;;7.97;3.63;;;;;;;7.71;84.30;100719.28;5023237;28;20034;-79
2022/01/02 05:59:37;;;;;;;6.72;3.70;;;;;;;7.75;84.64;100714.94;5015059;28;20034;-79
2022/01/02 06:02:03;;;;;;;7.03;3.70;;;;;;;7.79;84.67;100727.25;5014921;28;20068;-78
2022/01/02 06:04:28;;;;;;;6.60;3.83;;;;;;;7.80;84.42;100719.34;5014662;28;20025;-79
2022/01/02 06:06:54;;;;;;;7.63;3.92;;;;;;;7.84;84.51;100718.53;5014921;28;20034;-79
2022/01/02 06:09:20;;;;;;;8.25;4.28;;;;;;;7.85;84.24;100722.03;5014776;28;20029;-80
2022/01/02 06:11:46;;;;;;;7.70;4.32;;;;;;;7.89;83.89;100716.81;5014650;28;20424;-79
2022/01/02 06:14:11;;;;;;;7.47;3.97;;;;;;;7.89;84.25;100703.69;5006438;28;20026;-79
2022/01/02 06:16:36;;;;;;;8.50;4.43;;;;;;;7.92;84.34;100717.72;5014264;28;20041;-80
2022/01/02 06:19:02;;;;;;;9.43;4.43;;;;;;;7.90;84.32;100721.19;5014643;28;20079;-79
2022/01/02 06:21:28;;;;;;;9.38;3.97;;;;;;;7.87;83.99;100705.41;5014541;28;20026;-79
2022/01/02 06:23:53;;;;;;;7.30;4.10;;;;;;;7.88;83.81;100691.38;5014241;28;20550;-79
2022/01/02 06:26:19;;;;;;;6.65;4.10;;;;;;;7.89;83.78;100687.03;5015618;28;20405;-79
2022/01/02 06:28:44;;;;;;;8.30;4.28;;;;;;;7.86;83.87;100692.28;5014602;28;20034;-79
2022/01/02 06:31:09;;;;;;;8.35;4.05;;;;;;;7.85;83.95;100701.88;5014774;28;20030;-79
2022/01/02 06:33:36;;;;;;;7.18;3.75;;;;;;;7.88;84.13;100701.91;5014344;28;20504;-78
2022/01/02 06:36:01;;;;;;;7.10;3.75;;;;;;;7.86;83.64;100708.03;5012774;28;20041;-79
2022/01/02 06:38:28;;;;;;;7.45;4.00;;;;;;;7.82;84.04;100712.38;5015426;28;20036;-79
2022/01/02 06:40:55;;;;;;;6.75;3.30;;;;;;;7.78;83.34;100712.31;5014136;28;20564;-79
2022/01/02 06:43:21;;;;;;;6.93;3.67;;;;;;;7.73;83.85;100701.81;5015284;28;20096;-79
2022/01/02 06:45:47;;;;;;;6.50;3.55;;;;;;;7.66;84.13;100700.00;5015385;28;20488;-79
2022/01/02 06:48:13;;;;;;;7.75;3.65;;;;;;;7.61;84.33;100691.19;5014269;28;20121;-79
2022/01/02 06:50:41;;;;;;;7.28;3.78;;;;;;;7.54;84.21;100689.38;5013963;28;20034;-79
2022/01/02 06:53:07;;;;;;;8.13;4.43;;;;;;;7.50;84.37;100700.72;5014030;28;20504;-79
2022/01/02 06:55:33;;;;;;;6.85;3.88;;;;;;;7.50;84.80;100690.22;5030279;28;20038;-79
2022/01/02 06:57:59;;;;;;;8.40;4.00;;;;;;;7.47;85.03;100699.81;5013909;28;20034;-79
2022/01/02 07:00:24;;;;;;;7.32;4.13;;;;;;;7.43;84.68;100679.63;5014019;28;20041;-79
2022/01/02 07:02:50;;;;;;;8.38;3.97;;;;;;;7.36;84.54;100675.22;5013797;28;20033;-79
2022/01/02 07:05:16;;;;;;;7.82;3.55;;;;;;;7.36;84.87;100663.81;5022134;28;20044;-79
2022/01/02 07:07:44;;;;;;;6.70;3.95;;;;;;;7.35;85.06;100689.19;5013978;28;20117;-79
2022/01/02 07:10:12;;;;;;;6.95;3.67;;;;;;;7.34;84.99;100703.22;5015559;28;20038;-79
2022/01/02 07:12:38;;;;;;;6.72;3.65;;;;;;;7.24;84.47;100714.47;5016948;28;20049;-79
2022/01/02 07:15:06;;;;;;;7.60;4.22;;;;;;;7.16;84.81;100703.91;5013312;28;20038;-79
2022/01/02 07:17:31;;;;;;;10.00;4.38;;;;;;;7.14;85.41;100705.63;5013677;28;20499;-79
2022/01/02 07:19:56;;;;;;;7.35;3.95;;;;;;;7.14;85.09;100708.25;5014710;28;20042;-79
2022/01/02 07:22:22;;;;;;;9.07;3.83;;;;;;;7.16;85.52;100705.66;5013745;28;20048;-80
2022/01/02 07:24:51;;;;;;;9.10;5.03;;;;;;;7.23;85.68;100707.44;5014913;28;20034;-79
2022/01/02 07:27:20;;;;;;;7.88;4.35;;;;;;;7.30;85.53;100701.41;5014554;28;20034;-79
2022/01/02 07:29:46;;;;;;;7.63;3.88;;;;;;;7.35;85.10;100710.19;5014227;28;20029;-78
2022/01/02 07:32:13;;;;;;;8.20;4.75;;;;;;;7.38;84.90;100720.72;5014283;28;20033;-80
2022/01/02 07:34:38;;;;;;;7.53;4.82;;;;;;;7.35;84.40;100719.84;5014275;28;20118;-80
2022/01/02 07:37:03;;;;;;;9.10;5.75;;;;;;;7.38;85.34;100704.09;5014536;28;20069;-79
2022/01/02 07:39:29;;;;;;;8.73;5.43;;;;;;;7.48;85.42;100695.44;5014679;28;20068;-79
2022/01/02 07:41:54;;;;;;;9.10;5.50;;;;;;;7.61;85.65;100691.19;5014162;28;20066;-79
2022/01/02 07:44:26;;;;;;;;;;;;;;;7.74;86.17;100686.91;5012632;28;20034;-79
2022/01/02 07:46:52;;;;;;;9.50;5.65;;;;;;;7.85;84.96;100675.59;5014059;28;20044;-79
2022/01/02 07:49:17;;;;;;;8.48;5.43;;;;;;;7.95;84.64;100680.94;5013879;28;20045;-79
2022/01/02 07:51:43;;;;;;;7.35;4.63;;;;;;;7.94;83.61;100684.41;5014194;28;20041;-79
2022/01/02 07:54:08;;;;;;;8.30;4.93;;;;;;;7.95;84.09;100696.72;5012704;28;20041;-79
2022/01/02 07:56:34;;;;;;;10.70;7.47;;;;;;;7.96;83.65;100690.56;5008858;28;20527;-79
2022/01/02 07:59:00;;;;;;;15.65;7.65;;;;;;;7.98;83.31;100687.09;5013899;28;20037;-79
2022/01/02 08:01:26;;;;;;;13.13;7.57;;;;;;;8.13;84.22;100674.03;5013680;28;20121;-79
2022/01/02 08:03:52;;;;;;;10.20;6.57;;;;;;;8.29;83.58;100672.38;5021153;28;20546;-79
2022/01/02 08:06:17;;;;;;;10.32;5.35;;;;;;;8.44;83.86;100663.75;5013539;28;20037;-79
2022/01/02 08:08:44;;;;;;;9.27;4.90;;;;;;;8.62;84.44;100659.41;5013300;28;20065;-78
2022/01/02 08:11:09;;;;;;;8.60;4.75;;;;;;;8.80;83.88;100659.47;5013328;28;20037;-79
2022/01/02 08:13:34;;;;;;;8.75;4.63;;;;;;;8.97;83.82;100656.91;5013868;28;20105;-79
2022/01/02 08:16:00;;;;;;;7.95;4.40;;;;;;;9.06;83.45;100656.91;5013454;28;20025;-79
2022/01/02 08:18:25;;;;;;;5.75;3.63;;;;;;;9.18;82.92;100656.94;5013688;28;20052;-79
2022/01/02 08:20:50;;;;;;;7.05;3.92;;;;;;;9.27;82.76;100656.06;5013424;28;20090;-79
2022/01/02 08:23:16;;;;;;;6.85;3.75;;;;;;;9.40;83.02;100647.28;5020695;28;20509;-79
2022/01/02 08:25:42;;;;;;;6.70;3.85;;;;;;;9.53;82.57;100642.91;5020551;28;20435;-79
2022/01/02 08:28:07;;;;;;;6.97;3.72;;;;;;;9.66;82.43;100647.28;5013116;28;20069;-79
2022/01/02 08:30:33;;;;;;;5.72;3.10;;;;;;;9.83;82.27;100651.69;5012095;28;20120;-79
2022/01/02 08:32:58;;;;;;;7.25;3.40;;;;;;;9.98;81.44;100650.75;5013418;28;20385;-79
2022/01/02 08:35:24;;;;;;;5.63;2.95;;;;;;;10.13;80.79;100656.00;5013108;28;20117;-79
2022/01/02 08:37:49;;;;;;;6.03;3.40;;;;;;;10.27;80.70;100663.88;5013065;28;20040;-78
2022/01/02 08:40:15;;;;;;;7.15;3.63;;;;;;;10.37;79.82;100657.72;5013273;28;20057;-79
2022/01/02 08:42:40;;;;;;;6.60;3.15;;;;;;;10.45;79.42;100648.06;5013215;28;20045;-79
2022/01/02 08:45:06;;;;;;;7.00;3.80;;;;;;;10.48;79.55;100657.72;5011844;28;20026;-79
2022/01/02 08:47:32;;;;;;;6.40;3.50;;;;;;;10.58;79.69;100663.81;5013216;28;20042;-78
2022/01/02 08:49:57;;;;;;;7.70;3.63;;;;;;;10.71;78.92;100671.66;5013288;28;20034;-79
2022/01/02 08:52:24;;;;;;;6.22;3.50;;;;;;;10.81;78.52;100669.88;5012896;28;20180;-79
2022/01/02 08:54:50;;;;;;;7.03;3.55;;;;;;;10.89;78.08;100664.56;5013016;28;20145;-79
2022/01/02 08:57:15;;;;;;;7.88;3.95;;;;;;;11.02;77.98;100665.38;5013220;28;20088;-80
2022/01/02 08:59:41;;;;;;;5.45;2.92;;;;;;;11.12;77.02;100665.31;5012375;28;20041;-80
2022/01/02 09:02:07;;;;;;;6.95;3.47;;;;;;;11.19;76.99;100668.81;5012909;28;20037;-79
2022/01/02 09:04:32;;;;;;;8.40;4.10;;;;;;;11.20;76.30;100675.81;5012990;28;20042;-79
2022/01/02 09:06:57;;;;;;;6.93;3.58;;;;;;;11.18;76.43;100674.94;5012918;28;20112;-79
2022/01/02 09:09:24;;;;;;;7.20;4.22;;;;;;;11.26;76.52;100673.13;5012767;28;20046;-79
2022/01/02 09:11:52;;;;;;;6.88;4.05;;;;;;;11.41;76.32;100665.09;5012471;28;20038;-79
2022/01/02 09:14:18;;;;;;;8.45;4.32;;;;;;;11.55;76.16;100669.41;5020190;28;20436;-80
2022/01/02 09:16:44;;;;;;;7.15;4.00;;;;;;;11.71;75.55;100657.84;5012897;28;20060;-79
2022/01/02 09:19:11;;;;;;;9.77;3.83;;;;;;;11.83;75.54;100654.19;5012982;28;20069;-80
2022/01/02 09:21:36;;;;;;;5.13;2.88;;;;;;;11.87;73.87;100647.13;5011753;28;20037;-79
2022/01/02 09:24:02;;;;;;;5.35;3.13;;;;;;;11.96;73.96;100639.13;5013002;28;20042;-80
2022/01/02 09:26:27;;;;;;;7.15;3.45;;;;;;;12.09;74.17;100642.50;5011290;28;20477;-79
2022/01/02 09:28:53;;;;;;;6.05;2.97;;;;;;;12.16;73.28;100629.19;5012823;28;20041;-79
2022/01/02 09:31:18;;;;;;;5.32;2.83;;;;;;;12.19;72.77;100629.16;5020210;28;20045;-80
2022/01/02 09:33:43;;;;;;;4.78;2.50;;;;;;;12.29;71.97;100624.66;5012925;28;20050;-79
2022/01/02 09:36:09;;;;;;;4.50;2.58;;;;;;;12.31;72.03;100625.47;5011522;28;20045;-79
2022/01/02 09:38:34;;;;;;;6.25;2.85;;;;;;;12.40;71.47;100619.22;5011792;28;20041;-80
2022/01/02 09:41:00;;;;;;;4.75;2.40;;;;;;;12.48;71.52;100617.34;5020262;28;20037;-79
2022/01/02 09:43:26;;;;;;;5.15;2.60;;;;;;;12.48;71.31;100622.66;5012922;28;20030;-79
2022/01/02 09:45:52;;;;;;;4.45;2.90;;;;;;;12.56;71.57;100620.78;5012641;28;20042;-79
2022/01/02 09:48:18;;;;;;;5.47;3.13;;;;;;;12.62;71.38;100607.44;5013026;28;20034;-80
2022/01/02 09:50:44;;;;;;;4.63;2.42;;;;;;;12.64;71.03;100613.59;5012485;28;20037;-80
2022/01/02 09:53:10;;;;;;;5.78;2.78;;;;;;;12.62;71.14;100618.03;5008839;28;20034;-80
2022/01/02 09:55:35;;;;;;;6.10;3.42;;;;;;;12.63;70.76;100613.66;5012561;28;20033;-80
2022/01/02 09:58:03;;;;;;;5.60;2.50;;;;;;;12.58;71.32;100608.41;5012769;28;20042;-80
2022/01/02 10:00:29;;;;;;;5.00;2.72;;;;;;;12.57;70.56;100588.09;5011469;28;20030;-79
2022/01/02 10:03:00;;;;;;;4.88;2.70;;;;;;;12.46;69.96;100584.72;5011638;28;20041;-80
2022/01/02 10:05:27;;;;;;;6.95;2.67;;;;;;;12.56;70.78;100578.41;5012419;28;20042;-79
2022/01/02 10:07:54;;;;;;;5.82;2.60;;;;;;;12.56;70.73;100583.72;5012753;28;20129;-79
2022/01/02 10:10:20;;;;;;;4.88;2.60;;;;;;;12.57;70.23;100588.09;5014341;28;20040;-79
2022/01/02 10:12:46;;;;;;;6.00;2.80;;;;;;;12.57;70.11;100577.50;5015392;28;20034;-79
2022/01/02 10:15:16;;;;;;;5.50;2.78;;;;;;;12.71;70.05;100567.63;5014214;28;20455;-79
2022/01/02 10:18:10;;;;;;;5.30;2.80;;;;;;;12.75;69.47;100567.56;5016207;28;20030;-79
2022/01/02 10:20:45;;;;;;;5.20;2.70;;;;;;;12.82;69.00;100566.59;5014946;28;20128;-80
2022/01/02 10:23:18;;;;;;;5.80;2.90;;;;;;;12.85;69.04;100558.59;5016553;28;20076;-79
2022/01/02 10:25:49;;;;;;;6.80;3.03;;;;;;;12.95;69.53;100552.25;5016342;28;20065;-79
2022/01/02 10:28:29;;;;;;;5.68;2.92;;;;;;;13.00;68.75;100553.06;5020147;28;20069;-80
2022/01/02 10:31:15;;;;;;;7.60;3.38;;;;;;;13.01;68.33;100549.50;5014187;28;20053;-79
2022/01/02 10:33:59;;;;;;;5.13;2.72;;;;;;;13.03;68.42;100550.34;5012318;28;20033;-80
2022/01/02 10:36:40;;;;;;;5.85;2.88;;;;;;;13.05;69.01;100532.66;5014471;28;20480;-80
2022/01/02 10:39:14;;;;;;;5.28;2.45;;;;;;;13.11;69.56;100524.59;5016150;28;20045;-80
2022/01/02 10:41:45;;;;;;;5.22;2.28;;;;;;;13.07;69.66;100525.56;5012858;28;20037;-79
2022/01/02 10:44:33;;;;;;;5.03;2.47;;;;;;;13.07;70.25;100536.19;5016109;28;20088;-80
2022/01/02 10:47:04;;;;;;;5.00;2.80;;;;;;;13.10;69.63;100519.34;5016123;28;20038;-80
2022/01/02 10:49:52;;;;;;;6.05;2.95;;;;;;;13.09;69.63;100496.38;5012191;28;20124;-80
2022/01/02 10:52:24;;;;;;;4.50;2.50;;;;;;;13.14;70.25;100487.44;5014691;28;20046;-80
2022/01/02 10:54:50;;;;;;;6.55;3.25;;;;;;;13.20;70.87;100478.50;5015941;28;20200;-80
2022/01/02 10:57:16;;;;;;;6.63;2.70;;;;;;;13.26;70.61;100490.81;5014953;28;20041;-80
2022/01/02 10:59:45;;;;;;;5.60;2.60;;;;;;;13.22;70.41;100481.16;5016121;28;20041;-80
2022/01/02 11:02:13;;;;;;;5.50;2.75;;;;;;;13.18;70.96;100475.03;5015983;28;20040;-81
2022/01/02 11:04:56;;;;;;;4.78;2.40;;;;;;;13.12;70.25;100465.41;5015464;28;20496;-80
2022/01/02 11:07:24;;;;;;;4.97;2.50;;;;;;;13.07;70.50;100469.03;5013771;28;20042;-81
2022/01/02 11:09:54;;;;;;;5.38;2.40;;;;;;;13.03;70.49;100456.75;5016913;28;20045;-80
2022/01/02 11:12:20;;;;;;;7.72;3.00;;;;;;;12.94;70.27;100456.03;5017253;28;20041;-80
2022/01/02 11:14:48;;;;;;;4.63;2.33;;;;;;;13.02;70.27;100447.03;5015318;28;20030;-80
2022/01/02 11:17:14;;;;;;;4.22;2.47;;;;;;;13.05;70.22;100437.28;5016419;28;20101;-79
2022/01/02 11:19:40;;;;;;;4.38;2.63;;;;;;;13.06;69.57;100431.06;5016480;28;20100;-81
2022/01/02 11:22:11;;;;;;;6.82;2.50;;;;;;;13.12;69.87;100423.00;5012103;28;20477;-80
2022/01/02 11:24:46;;;;;;;4.23;2.57;;;;;;;13.20;70.38;100406.09;5012868;28;20064;-80
2022/01/02 11:27:19;;;;;;;4.65;2.30;;;;;;;13.18;70.67;100387.59;5015204;28;20034;-80
2022/01/02 11:29:45;;;;;;;5.95;2.53;;;;;;;13.18;70.82;100378.75;5016214;28;20144;-80
2022/01/02 11:32:21;;;;;;;4.63;2.13;;;;;;;13.18;70.77;100360.19;5015293;28;20124;-80
2022/01/02 11:34:47;;;;;;;5.13;1.95;;;;;;;13.19;71.51;100360.19;5015853;28;20049;-80
2022/01/02 11:37:12;;;;;;;4.95;2.30;;;;;;;13.07;71.83;100350.72;5016159;28;20594;-81
2022/01/02 11:39:50;;;;;;;8.65;3.03;;;;;;;13.05;72.26;100341.91;5016250;28;20037;-80
2022/01/02 11:42:34;;;;;;;6.38;2.80;;;;;;;13.02;72.67;100347.28;5016603;28;20053;-80